createdAt,value
2022-08-28T00:00:41.478Z,30.75
2022-08-28T00:03:13.531Z,31.10
2022-08-28T00:05:46.641Z,31.25
2022-08-28T00:08:18.496Z,31.24
2022-08-28T00:10:49.509Z,31.30
2022-08-28T00:13:23.393Z,30.94
2022-08-28T00:16:02.063Z,31.06
2022-08-28T00:18:32.678Z,31.11
2022-08-28T00:21:04.579Z,30.87
2022-08-28T00:23:42.995Z,31.17
2022-08-28T00:26:33.701Z,31.31
2022-08-28T00:29:05.458Z,31.43
2022-08-28T00:31:40.668Z,30.96
2022-08-28T00:34:12.034Z,30.44
2022-08-28T00:36:43.386Z,30.24
2022-08-28T00:39:13.401Z,30.39
2022-08-28T00:41:46.842Z,30.32
2022-08-28T00:44:25.090Z,30.76
2022-08-28T00:46:57.612Z,30.95
2022-08-28T00:49:31.905Z,30.87
2022-08-28T00:52:12.884Z,30.58
2022-08-28T00:55:03.815Z,30.34
2022-08-28T00:57:42.140Z,30.18
2022-08-28T01:00:20.412Z,30.80
2022-08-28T01:02:50.939Z,30.38
2022-08-28T01:05:21.882Z,30.22
2022-08-28T01:07:52.967Z,30.09
2022-08-28T01:10:25.954Z,29.65
2022-08-28T01:12:58.107Z,30.11
2022-08-28T01:15:33.178Z,30.06
2022-08-28T01:18:09.360Z,30.47
2022-08-28T01:20:46.987Z,30.25
2022-08-28T01:23:34.389Z,29.96
2022-08-28T01:26:06.568Z,30.41
2022-08-28T01:28:42.459Z,29.99
2022-08-28T01:31:14.972Z,28.89
2022-08-28T01:33:47.415Z,27.63
2022-08-28T01:36:18.891Z,27.94
2022-08-28T01:38:54.756Z,28.48
2022-08-28T01:41:25.023Z,27.57
2022-08-28T01:43:55.456Z,28.39
2022-08-28T01:46:25.557Z,29.08
2022-08-28T01:48:56.057Z,27.68
2022-08-28T01:51:26.085Z,28.61
2022-08-28T01:53:56.583Z,28.48
2022-08-28T01:56:27.386Z,27.99
2022-08-28T01:58:57.860Z,28.95
2022-08-28T02:01:27.897Z,29.09
2022-08-28T02:03:58.923Z,29.19
2022-08-28T02:06:29.004Z,29.44
2022-08-28T02:09:00.604Z,29.58
2022-08-28T02:11:32.089Z,29.77
2022-08-28T02:14:03.167Z,28.85
2022-08-28T02:16:33.205Z,27.50
2022-08-28T02:19:07.367Z,27.54
2022-08-28T02:21:37.380Z,28.74
2022-08-28T02:24:08.155Z,29.23
2022-08-28T02:26:41.113Z,28.81
2022-08-28T02:29:11.525Z,28.94
2022-08-28T02:31:41.597Z,29.43
2022-08-28T02:34:12.562Z,28.69
2022-08-28T02:36:43.786Z,28.19
2022-08-28T02:39:14.318Z,26.41
2022-08-28T02:41:44.438Z,24.35
2022-08-28T02:44:14.905Z,23.78
2022-08-28T02:46:45.123Z,23.62
2022-08-28T02:49:15.514Z,23.71
2022-08-28T02:51:45.577Z,25.04
2022-08-28T02:54:16.008Z,26.54
2022-08-28T02:56:49.553Z,27.08
2022-08-28T02:59:20.268Z,27.12
2022-08-28T03:01:50.514Z,25.54
2022-08-28T03:04:21.081Z,25.13
2022-08-28T03:06:52.454Z,26.62
2022-08-28T03:09:22.863Z,26.16
2022-08-28T03:11:55.253Z,27.82
2022-08-28T03:14:27.400Z,28.31
2022-08-28T03:16:57.528Z,28.19
2022-08-28T03:19:28.593Z,26.00
2022-08-28T03:21:58.610Z,24.07
2022-08-28T03:24:28.998Z,23.34
2022-08-28T03:26:59.551Z,23.64
2022-08-28T03:29:30.181Z,23.63
2022-08-28T03:32:01.471Z,23.82
2022-08-28T03:34:32.195Z,23.12
2022-08-28T03:37:02.443Z,24.07
2022-08-28T03:39:32.835Z,24.05
2022-08-28T03:42:02.645Z,23.06
2022-08-28T03:44:33.167Z,23.44
2022-08-28T03:47:03.160Z,22.76
2022-08-28T03:49:33.909Z,22.63
2022-08-28T03:52:05.427Z,23.09
2022-08-28T03:54:36.056Z,23.65
2022-08-28T03:57:06.199Z,24.35
2022-08-28T03:59:37.341Z,25.68
2022-08-28T04:02:07.342Z,25.73
2022-08-28T04:04:37.770Z,26.40
2022-08-28T04:07:07.881Z,25.89
2022-08-28T04:09:38.339Z,25.03
2022-08-28T04:12:09.592Z,24.19
2022-08-28T04:14:40.486Z,25.51
2022-08-28T04:17:13.604Z,24.68
2022-08-28T04:19:45.873Z,23.47
2022-08-28T04:22:15.885Z,23.79
2022-08-28T04:24:48.427Z,24.23
2022-08-28T04:27:21.536Z,25.72
2022-08-28T04:29:52.007Z,26.64
2022-08-28T04:32:25.606Z,26.69
2022-08-28T04:34:56.047Z,26.51
2022-08-28T04:37:27.856Z,26.47
2022-08-28T04:40:01.297Z,26.23
2022-08-28T04:42:31.292Z,25.65
2022-08-28T04:45:01.677Z,25.21
2022-08-28T04:47:32.153Z,24.53
2022-08-28T04:50:03.531Z,24.51
2022-08-28T04:52:33.659Z,23.89
2022-08-28T04:55:05.166Z,23.64
2022-08-28T04:57:36.652Z,23.57
2022-08-28T05:00:10.106Z,23.40
2022-08-28T05:02:40.189Z,23.06
2022-08-28T05:05:12.822Z,23.66
2022-08-28T05:07:42.824Z,23.76
2022-08-28T05:10:16.003Z,23.66
2022-08-28T05:12:46.163Z,24.16
2022-08-28T05:15:16.943Z,24.31
2022-08-28T05:17:49.334Z,24.50
2022-08-28T05:20:20.018Z,23.65
2022-08-28T05:22:49.539Z,22.29
2022-08-28T05:25:19.588Z,21.32
2022-08-28T05:27:50.038Z,22.26
2022-08-28T05:30:19.537Z,22.96
2022-08-28T05:32:49.257Z,22.90
2022-08-28T05:35:19.680Z,23.04
2022-08-28T05:37:49.546Z,22.76
2022-08-28T05:40:23.466Z,22.69
2022-08-28T05:42:54.114Z,21.03
2022-08-28T05:45:25.447Z,21.25
2022-08-28T05:47:55.500Z,22.36
2022-08-28T05:50:25.906Z,23.91
2022-08-28T05:52:56.010Z,24.49
2022-08-28T05:55:26.422Z,24.82
2022-08-28T05:58:16.722Z,25.15
2022-08-28T06:00:47.135Z,25.18
2022-08-28T06:03:17.181Z,25.12
2022-08-28T06:05:47.623Z,24.98
2022-08-28T06:08:17.675Z,25.20
2022-08-28T06:10:51.039Z,25.07
2022-08-28T06:13:21.734Z,25.00
2022-08-28T06:15:52.444Z,25.05
2022-08-28T06:18:22.512Z,24.75
2022-08-28T06:20:53.320Z,24.68
2022-08-28T06:23:24.707Z,24.32
2022-08-28T06:25:55.045Z,23.87
2022-08-28T06:28:26.205Z,24.24
2022-08-28T06:31:22.973Z,24.63
2022-08-28T06:33:50.495Z,24.92
2022-08-28T06:36:20.939Z,24.59
2022-08-28T06:38:51.129Z,24.37
2022-08-28T06:41:21.576Z,23.76
2022-08-28T06:44:00.022Z,22.12
2022-08-28T06:46:31.604Z,22.40
2022-08-28T06:49:05.073Z,22.15
2022-08-28T06:51:36.152Z,21.93
2022-08-28T06:54:07.136Z,21.32
2022-08-28T06:56:37.863Z,20.13
2022-08-28T06:59:07.990Z,19.00
2022-08-28T07:01:39.301Z,18.27
2022-08-28T07:04:11.922Z,17.27
2022-08-28T07:06:47.186Z,17.46
2022-08-28T07:09:19.294Z,16.74
2022-08-28T07:11:50.197Z,16.69
2022-08-28T07:14:20.389Z,16.95
2022-08-28T07:16:51.890Z,16.51
2022-08-28T07:19:22.034Z,15.79
2022-08-28T07:21:52.755Z,16.19
2022-08-28T07:24:23.148Z,16.09
2022-08-28T07:26:54.211Z,16.52
2022-08-28T07:29:24.702Z,16.27
2022-08-28T07:32:00.102Z,16.37
2022-08-28T07:34:30.131Z,15.91
2022-08-28T07:37:05.271Z,15.97
2022-08-28T07:39:35.854Z,16.19
2022-08-28T07:42:06.758Z,16.32
2022-08-28T07:44:52.096Z,16.49
2022-08-28T07:47:23.995Z,16.71
2022-08-28T07:49:54.654Z,17.04
2022-08-28T07:52:25.346Z,15.97
2022-08-28T07:54:56.555Z,16.77
2022-08-28T07:57:27.445Z,16.38
2022-08-28T07:59:58.495Z,16.73
2022-08-28T08:02:29.214Z,16.94
2022-08-28T08:04:59.376Z,16.56
2022-08-28T08:07:31.129Z,16.24
2022-08-28T08:10:01.203Z,16.82
2022-08-28T08:12:33.010Z,17.04
2022-08-28T08:15:05.300Z,16.70
2022-08-28T08:17:36.132Z,16.64
2022-08-28T08:20:07.942Z,16.53
2022-08-28T08:22:38.832Z,16.77
2022-08-28T08:25:09.480Z,16.53
2022-08-28T08:27:42.933Z,16.99
2022-08-28T08:30:13.823Z,17.06
2022-08-28T08:32:44.457Z,16.34
2022-08-28T08:35:14.526Z,16.45
2022-08-28T08:37:45.240Z,16.56
2022-08-28T08:40:20.732Z,16.05
2022-08-28T08:42:58.261Z,15.77
2022-08-28T08:45:30.600Z,15.69
2022-08-28T08:48:02.991Z,16.22
2022-08-28T08:50:36.877Z,16.03
2022-08-28T08:53:54.351Z,16.63
2022-08-28T08:56:25.102Z,16.74
2022-08-28T08:59:12.902Z,16.20
2022-08-28T09:01:52.108Z,16.59
2022-08-28T09:04:45.826Z,16.38
2022-08-28T09:07:22.447Z,16.00
2022-08-28T09:09:55.198Z,16.04
2022-08-28T09:12:27.247Z,15.71
2022-08-28T09:15:22.028Z,15.94
2022-08-28T09:17:57.442Z,16.27
2022-08-28T09:20:33.264Z,16.22
2022-08-28T09:23:12.877Z,16.41
2022-08-28T09:25:50.986Z,16.40
2022-08-28T09:28:31.370Z,15.98
2022-08-28T09:31:06.045Z,16.07
2022-08-28T09:33:44.317Z,16.55
2022-08-28T09:36:36.087Z,16.16
2022-08-28T09:39:28.184Z,16.43
2022-08-28T09:42:28.951Z,15.89
2022-08-28T09:45:21.358Z,16.12
2022-08-28T09:47:59.862Z,15.94
2022-08-28T09:50:37.636Z,15.91
2022-08-28T09:53:11.133Z,15.99
2022-08-28T09:55:59.535Z,16.24
2022-08-28T09:58:45.466Z,16.09
2022-08-28T10:01:45.520Z,16.28
2022-08-28T10:04:31.529Z,16.41
2022-08-28T10:07:18.523Z,16.31
2022-08-28T10:10:01.088Z,16.30
2022-08-28T10:13:00.630Z,16.45
2022-08-28T10:16:00.848Z,16.66
2022-08-28T10:18:37.658Z,16.96
2022-08-28T10:21:29.455Z,17.22
2022-08-28T10:24:12.009Z,17.18
2022-08-28T10:27:09.526Z,16.76
2022-08-28T10:30:00.327Z,17.30
2022-08-28T10:33:01.083Z,17.57
2022-08-28T10:35:50.822Z,17.51
2022-08-28T10:38:43.263Z,17.50
2022-08-28T10:41:27.522Z,17.34
2022-08-28T10:44:02.089Z,16.79
2022-08-28T10:46:42.937Z,17.45
2022-08-28T10:49:30.242Z,17.43
2022-08-28T10:52:28.669Z,17.89
2022-08-28T10:55:20.004Z,17.82
2022-08-28T10:57:59.756Z,17.34
2022-08-28T11:00:31.152Z,17.68
2022-08-28T11:03:32.898Z,17.71
2022-08-28T11:06:15.228Z,17.77
2022-08-28T11:08:53.598Z,17.93
2022-08-28T11:12:02.428Z,17.98
2022-08-28T11:14:48.518Z,18.23
2022-08-28T11:17:31.435Z,18.23
2022-08-28T11:20:29.591Z,18.15
2022-08-28T11:23:12.469Z,18.12
2022-08-28T11:26:01.782Z,17.99
2022-08-28T11:28:38.351Z,17.98
2022-08-28T11:31:08.639Z,17.92
2022-08-28T11:33:49.785Z,17.81
2022-08-28T11:36:26.610Z,17.74
2022-08-28T11:38:56.605Z,17.82
2022-08-28T11:41:40.198Z,17.88
2022-08-28T11:44:14.429Z,18.00
2022-08-28T11:46:47.527Z,18.40
2022-08-28T11:49:35.683Z,18.74
2022-08-28T11:52:12.706Z,19.13
2022-08-28T11:55:16.204Z,19.17
2022-08-28T11:57:49.671Z,19.40
2022-08-28T12:00:32.509Z,19.35
2022-08-28T12:03:28.767Z,19.20
2022-08-28T12:06:01.379Z,18.66
2022-08-28T12:08:47.163Z,18.93
2022-08-28T12:11:42.141Z,19.21
2022-08-28T12:14:38.070Z,18.45
2022-08-28T12:17:20.253Z,17.74
2022-08-28T12:20:15.601Z,18.03
2022-08-28T12:22:49.055Z,18.54
2022-08-28T12:25:39.519Z,18.33
2022-08-28T12:28:38.663Z,18.64
2022-08-28T12:31:49.927Z,18.88
2022-08-28T12:34:47.550Z,18.85
2022-08-28T12:37:29.119Z,19.08
2022-08-28T12:40:06.291Z,18.64
2022-08-28T12:42:41.550Z,18.99
2022-08-28T12:45:17.109Z,18.92
2022-08-28T12:47:50.376Z,19.08
2022-08-28T12:50:32.544Z,19.23
2022-08-28T12:53:05.826Z,19.36
2022-08-28T12:55:41.354Z,19.36
2022-08-28T12:58:34.327Z,19.26
2022-08-28T13:01:11.546Z,19.09
2022-08-28T13:03:51.889Z,18.74
2022-08-28T13:06:29.685Z,18.43
2022-08-28T13:09:05.050Z,18.81
2022-08-28T13:11:46.407Z,18.87
2022-08-28T13:14:36.239Z,19.05
2022-08-28T13:17:10.051Z,18.11
2022-08-28T13:19:40.468Z,18.18
2022-08-28T13:22:34.715Z,16.80
2022-08-28T13:25:08.389Z,17.39
2022-08-28T13:27:39.904Z,17.83
2022-08-28T13:30:27.444Z,17.68
2022-08-28T13:33:03.855Z,17.57
2022-08-28T13:35:37.373Z,17.84
2022-08-28T13:38:10.983Z,17.43
2022-08-28T13:41:02.085Z,17.37
2022-08-28T13:43:46.126Z,17.98
2022-08-28T13:46:16.291Z,17.71
2022-08-28T13:48:46.747Z,18.00
2022-08-28T13:51:19.077Z,18.69
2022-08-28T13:53:52.512Z,18.99
2022-08-28T13:56:22.637Z,19.18
2022-08-28T13:58:57.466Z,19.36
2022-08-28T14:01:51.140Z,19.31
2022-08-28T14:04:21.646Z,19.15
2022-08-28T14:06:52.263Z,19.09
2022-08-28T14:09:22.914Z,19.31
2022-08-28T14:11:53.195Z,19.53
2022-08-28T14:14:24.439Z,19.64
2022-08-28T14:16:56.244Z,19.78
2022-08-28T14:19:27.184Z,19.23
2022-08-28T14:21:57.436Z,18.80
2022-08-28T14:24:28.685Z,18.38
2022-08-28T14:26:58.788Z,18.50
2022-08-28T14:29:29.213Z,18.56
2022-08-28T14:32:01.259Z,18.92
2022-08-28T14:34:32.468Z,18.52
2022-08-28T14:37:03.046Z,18.75
2022-08-28T14:39:33.513Z,18.83
2022-08-28T14:42:03.973Z,19.08
2022-08-28T14:44:34.770Z,18.83
2022-08-28T14:47:05.210Z,18.24
2022-08-28T14:49:35.777Z,18.63
2022-08-28T14:52:05.786Z,18.61
2022-08-28T14:54:36.287Z,18.53
2022-08-28T14:57:06.400Z,18.14
2022-08-28T14:59:37.331Z,17.66
2022-08-28T15:02:08.136Z,17.59
2022-08-28T15:04:39.129Z,18.32
2022-08-28T15:07:12.908Z,18.05
2022-08-28T15:09:44.716Z,18.54
2022-08-28T15:12:16.779Z,18.61
2022-08-28T15:14:54.650Z,19.13
2022-08-28T15:17:33.783Z,19.06
2022-08-28T15:20:05.074Z,18.58
2022-08-28T15:22:35.574Z,19.04
2022-08-28T15:25:07.090Z,19.46
2022-08-28T15:27:37.815Z,19.57
2022-08-28T15:30:07.610Z,19.39
2022-08-28T15:32:37.688Z,19.31
2022-08-28T15:35:08.670Z,19.60
2022-08-28T15:37:38.758Z,19.07
2022-08-28T15:40:27.488Z,18.81
2022-08-28T15:42:58.150Z,18.62
2022-08-28T15:45:28.447Z,18.52
2022-08-28T15:48:00.010Z,18.75
2022-08-28T15:50:30.015Z,19.01
2022-08-28T15:53:00.714Z,19.37
2022-08-28T15:55:33.668Z,19.25
2022-08-28T15:58:04.252Z,19.62
2022-08-28T16:00:38.950Z,19.95
2022-08-28T16:03:09.611Z,19.68
2022-08-28T16:05:40.605Z,19.41
2022-08-28T16:08:11.962Z,18.90
2022-08-28T16:10:42.150Z,19.30
2022-08-28T16:13:12.774Z,18.62
2022-08-28T16:15:42.935Z,18.63
2022-08-28T16:18:16.651Z,18.46
2022-08-28T16:20:47.091Z,18.56
2022-08-28T16:23:17.746Z,18.19
2022-08-28T16:25:47.847Z,18.12
2022-08-28T16:28:18.431Z,18.08
2022-08-28T16:30:48.755Z,18.06
2022-08-28T16:33:21.844Z,18.10
2022-08-28T16:35:54.958Z,18.42
2022-08-28T16:38:27.352Z,18.32
2022-08-28T16:40:57.622Z,18.16
2022-08-28T16:43:28.794Z,18.33
2022-08-28T16:45:58.886Z,18.32
2022-08-28T16:48:29.616Z,18.47
2022-08-28T16:51:00.101Z,18.87
2022-08-28T16:53:30.575Z,18.76
2022-08-28T16:56:00.874Z,18.31
2022-08-28T16:58:34.371Z,18.36
2022-08-28T17:01:05.895Z,18.51
2022-08-28T17:03:38.943Z,18.29
2022-08-28T17:06:15.159Z,17.13
2022-08-28T17:08:46.827Z,16.91
2022-08-28T17:11:17.866Z,16.80
2022-08-28T17:13:50.081Z,17.31
2022-08-28T17:16:22.269Z,17.08
2022-08-28T17:18:53.284Z,17.22
2022-08-28T17:21:42.421Z,16.72
2022-08-28T17:24:15.058Z,17.42
2022-08-28T17:26:45.600Z,16.98
2022-08-28T17:29:16.760Z,17.08
2022-08-28T17:31:46.934Z,16.82
2022-08-28T17:34:20.576Z,17.39
2022-08-28T17:36:53.966Z,17.43
2022-08-28T17:39:26.400Z,17.57
2022-08-28T17:41:56.773Z,17.88
2022-08-28T17:44:30.144Z,18.32
2022-08-28T17:46:59.788Z,18.44
2022-08-28T17:49:30.459Z,17.69
2022-08-28T17:52:03.080Z,18.26
2022-08-28T17:54:34.179Z,17.72
2022-08-28T17:57:04.402Z,17.99
2022-08-28T17:59:34.886Z,17.90
2022-08-28T18:02:04.972Z,17.60
2022-08-28T18:04:36.107Z,17.48
2022-08-28T18:07:06.816Z,17.39
2022-08-28T18:09:37.501Z,17.64
2022-08-28T18:12:12.502Z,17.63
2022-08-28T18:14:46.660Z,17.46
2022-08-28T18:17:17.288Z,17.88
2022-08-28T18:19:47.877Z,17.83
2022-08-28T18:22:17.950Z,17.61
2022-08-28T18:24:55.338Z,17.92
2022-08-28T18:27:27.716Z,18.09
2022-08-28T18:29:58.557Z,18.10
2022-08-28T18:32:28.217Z,17.83
2022-08-28T18:34:58.820Z,17.81
2022-08-28T18:37:28.870Z,17.53
2022-08-28T18:39:59.460Z,17.91
2022-08-28T18:42:31.846Z,17.30
2022-08-28T18:45:03.280Z,17.31
2022-08-28T18:47:33.405Z,17.79
2022-08-28T18:50:05.207Z,17.92
2022-08-28T18:52:35.956Z,17.37
2022-08-28T18:55:07.666Z,17.46
2022-08-28T18:57:38.258Z,17.42
2022-08-28T19:00:08.499Z,17.62
2022-08-28T19:02:41.782Z,16.95
2022-08-28T19:05:14.084Z,17.23
2022-08-28T19:07:44.215Z,17.12
2022-08-28T19:10:32.837Z,17.12
2022-08-28T19:13:06.625Z,17.05
2022-08-28T19:15:38.540Z,17.19
2022-08-28T19:18:08.915Z,17.21
2022-08-28T19:20:42.236Z,17.38
2022-08-28T19:23:16.901Z,16.93
2022-08-28T19:25:49.562Z,16.71
2022-08-28T19:28:19.591Z,16.93
2022-08-28T19:30:49.589Z,16.92
2022-08-28T19:33:20.283Z,16.85
2022-08-28T19:35:50.735Z,16.57
2022-08-28T19:38:21.184Z,16.08
2022-08-28T19:40:51.305Z,16.44
2022-08-28T19:43:25.057Z,16.36
2022-08-28T19:46:18.419Z,16.64
2022-08-28T19:48:56.296Z,15.93
2022-08-28T19:51:26.629Z,16.39
2022-08-28T19:53:59.029Z,16.89
2022-08-28T19:56:31.474Z,16.90
2022-08-28T19:59:04.605Z,17.02
2022-08-28T20:01:38.986Z,16.66
2022-08-28T20:04:10.868Z,15.71
2022-08-28T20:06:41.114Z,15.77
2022-08-28T20:09:13.050Z,15.81
2022-08-28T20:11:47.962Z,16.16
2022-08-28T20:14:20.267Z,16.25
2022-08-28T20:16:55.596Z,16.48
2022-08-28T20:19:26.076Z,16.61
2022-08-28T20:21:56.920Z,16.36
2022-08-28T20:24:27.655Z,16.24
2022-08-28T20:26:57.795Z,16.38
2022-08-28T20:29:28.323Z,16.35
2022-08-28T20:31:58.460Z,16.40
2022-08-28T20:34:30.045Z,16.56
2022-08-28T20:37:00.702Z,16.13
2022-08-28T20:39:31.256Z,15.73
2022-08-28T20:42:01.349Z,15.71
2022-08-28T20:44:31.297Z,15.49
2022-08-28T20:47:01.382Z,15.15
2022-08-28T20:49:32.051Z,15.56
2022-08-28T20:52:06.921Z,15.62
2022-08-28T20:54:38.393Z,15.80
2022-08-28T20:57:11.705Z,15.75
2022-08-28T20:59:44.191Z,16.11
2022-08-28T21:02:21.260Z,16.08
2022-08-28T21:04:52.283Z,15.69
2022-08-28T21:07:22.706Z,15.52
2022-08-28T21:10:06.341Z,15.69
2022-08-28T21:12:41.091Z,15.12
2022-08-28T21:15:13.681Z,15.18
2022-08-28T21:17:44.065Z,15.45
2022-08-28T21:20:17.309Z,15.24
2022-08-28T21:22:48.352Z,15.16
2022-08-28T21:25:18.373Z,14.95
2022-08-28T21:27:49.250Z,14.80
2022-08-28T21:30:22.401Z,14.55
2022-08-28T21:32:52.991Z,14.52
2022-08-28T21:35:24.072Z,14.60
2022-08-28T21:37:54.130Z,14.60
2022-08-28T21:40:24.693Z,14.17
2022-08-28T21:42:54.753Z,14.20
2022-08-28T21:45:25.195Z,14.27
2022-08-28T21:47:55.459Z,14.12
2022-08-28T21:50:25.950Z,13.99
2022-08-28T21:52:56.581Z,14.00
2022-08-28T21:55:27.088Z,13.78
2022-08-28T21:57:57.115Z,13.85
2022-08-28T22:00:27.630Z,13.64
2022-08-28T22:02:57.700Z,13.86
2022-08-28T22:05:29.495Z,14.17
2022-08-28T22:07:59.508Z,14.59
2022-08-28T22:10:29.924Z,14.97
2022-08-28T22:12:59.925Z,15.14
2022-08-28T22:15:30.569Z,15.24
2022-08-28T22:18:01.101Z,15.30
2022-08-28T22:20:32.115Z,15.45
2022-08-28T22:23:10.872Z,15.20
2022-08-28T22:25:44.366Z,15.57
2022-08-28T22:28:14.533Z,15.57
2022-08-28T22:30:45.186Z,15.57
2022-08-28T22:33:16.809Z,15.78
2022-08-28T22:35:46.666Z,15.86
2022-08-28T22:38:17.109Z,15.86
2022-08-28T22:40:47.921Z,15.95
2022-08-28T22:43:18.981Z,16.08
2022-08-28T22:45:49.928Z,15.79
2022-08-28T22:48:20.983Z,15.47
2022-08-28T22:50:51.994Z,15.52
2022-08-28T22:53:22.441Z,15.63
2022-08-28T22:55:52.867Z,15.79
2022-08-28T22:58:23.264Z,15.39
2022-08-28T23:00:54.533Z,15.73
2022-08-28T23:03:24.852Z,15.58
2022-08-28T23:05:55.637Z,15.64
2022-08-28T23:08:27.850Z,15.49
2022-08-28T23:11:01.165Z,15.60
2022-08-28T23:13:33.207Z,15.57
2022-08-28T23:16:05.012Z,15.78
2022-08-28T23:19:06.840Z,15.77
2022-08-28T23:21:29.548Z,15.89
2022-08-28T23:24:02.152Z,14.52
2022-08-28T23:26:32.681Z,15.02
2022-08-28T23:29:07.084Z,15.25
2022-08-28T23:31:38.369Z,15.17
2022-08-28T23:34:08.924Z,15.15
2022-08-28T23:36:39.645Z,15.22
2022-08-28T23:39:13.654Z,13.79
2022-08-28T23:41:43.513Z,14.26
2022-08-28T23:44:13.242Z,14.49
2022-08-28T23:46:43.270Z,13.78
2022-08-28T23:49:14.898Z,13.41
2022-08-28T23:51:48.039Z,13.51
2022-08-28T23:54:22.652Z,14.26
2022-08-28T23:56:52.463Z,14.60
2022-08-28T23:59:22.938Z,14.68
